sensor_id;sensor_type;location;lat;lon;timestamp;temperature;humidity
59146;DHT22;44928;53.074;6.646;2023-03-01T00:02:04;-0.20;99.90
59146;DHT22;44928;53.074;6.646;2023-03-01T00:04:30;-0.20;99.90
59146;DHT22;44928;53.074;6.646;2023-03-01T00:06:56;-0.20;99.90
59146;DHT22;44928;53.074;6.646;2023-03-01T00:09:22;-0.20;99.90
59146;DHT22;44928;53.074;6.646;2023-03-01T00:11:48;-0.20;99.90
59146;DHT22;44928;53.074;6.646;2023-03-01T00:14:14;-0.20;99.90
59146;DHT22;44928;53.074;6.646;2023-03-01T00:16:43;-0.20;99.90
59146;DHT22;44928;53.074;6.646;2023-03-01T00:19:15;-0.20;99.90
59146;DHT22;44928;53.074;6.646;2023-03-01T00:21:41;-0.20;99.90
59146;DHT22;44928;53.074;6.646;2023-03-01T00:24:08;-0.30;99.90
59146;DHT22;44928;53.074;6.646;2023-03-01T00:26:34;-0.30;99.90
59146;DHT22;44928;53.074;6.646;2023-03-01T00:29:00;-0.30;99.90
59146;DHT22;44928;53.074;6.646;2023-03-01T00:31:28;-0.30;99.90
59146;DHT22;44928;53.074;6.646;2023-03-01T00:34:04;-0.30;99.90
59146;DHT22;44928;53.074;6.646;2023-03-01T00:36:35;-0.40;99.90
59146;DHT22;44928;53.074;6.646;2023-03-01T00:39:03;-0.30;99.90
59146;DHT22;44928;53.074;6.646;2023-03-01T00:41:29;-0.40;99.90
59146;DHT22;44928;53.074;6.646;2023-03-01T00:43:55;-0.40;99.90
59146;DHT22;44928;53.074;6.646;2023-03-01T00:46:23;-0.40;99.90
59146;DHT22;44928;53.074;6.646;2023-03-01T00:48:49;-0.40;99.90
59146;DHT22;44928;53.074;6.646;2023-03-01T00:51:19;-0.40;99.90
59146;DHT22;44928;53.074;6.646;2023-03-01T00:53:45;-0.50;99.90
59146;DHT22;44928;53.074;6.646;2023-03-01T00:56:13;-0.50;99.90
59146;DHT22;44928;53.074;6.646;2023-03-01T00:58:39;-0.50;99.90
59146;DHT22;44928;53.074;6.646;2023-03-01T01:01:10;-0.50;99.90
59146;DHT22;44928;53.074;6.646;2023-03-01T01:03:53;-0.60;99.90
59146;DHT22;44928;53.074;6.646;2023-03-01T01:06:35;-0.60;99.90
59146;DHT22;44928;53.074;6.646;2023-03-01T01:09:03;-0.50;99.90
59146;DHT22;44928;53.074;6.646;2023-03-01T01:11:30;-0.60;99.90
59146;DHT22;44928;53.074;6.646;2023-03-01T01:13:56;-0.60;99.90
59146;DHT22;44928;53.074;6.646;2023-03-01T01:16:24;-0.60;99.90
59146;DHT22;44928;53.074;6.646;2023-03-01T01:18:51;-0.60;99.90
59146;DHT22;44928;53.074;6.646;2023-03-01T01:21:22;-0.70;99.90
59146;DHT22;44928;53.074;6.646;2023-03-01T01:23:49;-0.70;99.90
59146;DHT22;44928;53.074;6.646;2023-03-01T01:26:21;-0.70;99.90
59146;DHT22;44928;53.074;6.646;2023-03-01T01:28:47;-0.70;99.90
59146;DHT22;44928;53.074;6.646;2023-03-01T01:31:13;-0.80;99.90
59146;DHT22;44928;53.074;6.646;2023-03-01T01:33:39;-0.80;99.90
59146;DHT22;44928;53.074;6.646;2023-03-01T01:36:06;-0.80;99.90
59146;DHT22;44928;53.074;6.646;2023-03-01T01:38:32;-0.90;99.90
59146;DHT22;44928;53.074;6.646;2023-03-01T01:40:59;-0.90;99.90
59146;DHT22;44928;53.074;6.646;2023-03-01T01:43:28;-0.90;99.90
59146;DHT22;44928;53.074;6.646;2023-03-01T01:46:45;-1.00;99.90
59146;DHT22;44928;53.074;6.646;2023-03-01T01:49:01;-1.00;99.90
59146;DHT22;44928;53.074;6.646;2023-03-01T01:51:33;-1.00;99.90
59146;DHT22;44928;53.074;6.646;2023-03-01T01:54:10;-1.00;99.90
59146;DHT22;44928;53.074;6.646;2023-03-01T01:56:39;-1.00;99.90
59146;DHT22;44928;53.074;6.646;2023-03-01T01:59:06;-1.00;99.90
59146;DHT22;44928;53.074;6.646;2023-03-01T02:01:32;-1.10;99.90
59146;DHT22;44928;53.074;6.646;2023-03-01T02:03:58;-1.10;99.90
59146;DHT22;44928;53.074;6.646;2023-03-01T02:06:31;-1.20;99.90
59146;DHT22;44928;53.074;6.646;2023-03-01T02:09:02;-1.20;99.90
59146;DHT22;44928;53.074;6.646;2023-03-01T02:11:30;-1.20;99.90
59146;DHT22;44928;53.074;6.646;2023-03-01T02:13:56;-1.20;99.90
59146;DHT22;44928;53.074;6.646;2023-03-01T02:16:22;-1.20;99.90
59146;DHT22;44928;53.074;6.646;2023-03-01T02:18:49;-1.20;99.90
59146;DHT22;44928;53.074;6.646;2023-03-01T02:23:41;-1.20;99.90
59146;DHT22;44928;53.074;6.646;2023-03-01T02:26:28;-1.20;99.90
59146;DHT22;44928;53.074;6.646;2023-03-01T02:28:55;-1.30;99.90
59146;DHT22;44928;53.074;6.646;2023-03-01T02:31:21;-1.30;99.90
59146;DHT22;44928;53.074;6.646;2023-03-01T02:34:08;-1.30;99.90
59146;DHT22;44928;53.074;6.646;2023-03-01T02:36:37;-1.40;99.90
59146;DHT22;44928;53.074;6.646;2023-03-01T02:39:06;-1.40;99.90
59146;DHT22;44928;53.074;6.646;2023-03-01T02:41:37;-1.40;99.90
59146;DHT22;44928;53.074;6.646;2023-03-01T02:44:04;-1.40;99.90
59146;DHT22;44928;53.074;6.646;2023-03-01T02:46:31;-1.40;99.90
59146;DHT22;44928;53.074;6.646;2023-03-01T02:48:58;-1.40;99.90
59146;DHT22;44928;53.074;6.646;2023-03-01T02:51:31;-1.40;99.90
59146;DHT22;44928;53.074;6.646;2023-03-01T02:56:40;-1.50;99.90
59146;DHT22;44928;53.074;6.646;2023-03-01T02:59:06;-1.50;99.90
59146;DHT22;44928;53.074;6.646;2023-03-01T03:01:32;-1.50;99.90
59146;DHT22;44928;53.074;6.646;2023-03-01T03:04:13;-1.50;99.90
59146;DHT22;44928;53.074;6.646;2023-03-01T03:06:43;-1.60;99.90
59146;DHT22;44928;53.074;6.646;2023-03-01T03:09:09;-1.50;99.90
59146;DHT22;44928;53.074;6.646;2023-03-01T03:11:35;-1.50;99.90
59146;DHT22;44928;53.074;6.646;2023-03-01T03:14:02;-1.60;99.90
59146;DHT22;44928;53.074;6.646;2023-03-01T03:16:28;-1.60;99.90
59146;DHT22;44928;53.074;6.646;2023-03-01T03:18:55;-1.70;99.90
59146;DHT22;44928;53.074;6.646;2023-03-01T03:21:31;-1.80;99.90
59146;DHT22;44928;53.074;6.646;2023-03-01T03:23:57;-1.90;99.90
59146;DHT22;44928;53.074;6.646;2023-03-01T03:26:23;-1.90;99.90
59146;DHT22;44928;53.074;6.646;2023-03-01T03:28:49;-2.00;99.90
59146;DHT22;44928;53.074;6.646;2023-03-01T03:31:15;-1.90;99.90
59146;DHT22;44928;53.074;6.646;2023-03-01T03:33:40;-1.90;99.90
59146;DHT22;44928;53.074;6.646;2023-03-01T03:36:07;-1.90;99.90
59146;DHT22;44928;53.074;6.646;2023-03-01T03:38:39;-1.90;99.90
59146;DHT22;44928;53.074;6.646;2023-03-01T03:41:07;-1.90;99.90
59146;DHT22;44928;53.074;6.646;2023-03-01T03:43:35;-1.80;99.90
59146;DHT22;44928;53.074;6.646;2023-03-01T03:46:03;-1.90;99.90
59146;DHT22;44928;53.074;6.646;2023-03-01T03:48:33;-1.90;99.90
59146;DHT22;44928;53.074;6.646;2023-03-01T03:50:59;-1.90;99.90
59146;DHT22;44928;53.074;6.646;2023-03-01T03:53:27;-2.00;99.90
59146;DHT22;44928;53.074;6.646;2023-03-01T03:55:53;-2.00;99.90
59146;DHT22;44928;53.074;6.646;2023-03-01T03:58:22;-2.00;99.90
59146;DHT22;44928;53.074;6.646;2023-03-01T04:00:50;-2.00;99.90
59146;DHT22;44928;53.074;6.646;2023-03-01T04:03:17;-2.00;99.90
59146;DHT22;44928;53.074;6.646;2023-03-01T04:05:44;-2.00;99.90
59146;DHT22;44928;53.074;6.646;2023-03-01T04:08:10;-2.00;99.90
59146;DHT22;44928;53.074;6.646;2023-03-01T04:10:44;-2.00;99.90
59146;DHT22;44928;53.074;6.646;2023-03-01T04:13:13;-2.00;99.90
59146;DHT22;44928;53.074;6.646;2023-03-01T04:15:39;-2.00;99.90
59146;DHT22;44928;53.074;6.646;2023-03-01T04:18:06;-2.00;99.90
59146;DHT22;44928;53.074;6.646;2023-03-01T04:20:34;-1.90;99.90
59146;DHT22;44928;53.074;6.646;2023-03-01T04:23:04;-1.90;99.90
59146;DHT22;44928;53.074;6.646;2023-03-01T04:28:37;-1.90;99.90
59146;DHT22;44928;53.074;6.646;2023-03-01T04:31:14;-2.00;99.90
59146;DHT22;44928;53.074;6.646;2023-03-01T04:33:47;-2.00;99.90
59146;DHT22;44928;53.074;6.646;2023-03-01T04:36:15;-2.00;99.90
59146;DHT22;44928;53.074;6.646;2023-03-01T04:38:42;-2.00;99.90
59146;DHT22;44928;53.074;6.646;2023-03-01T04:41:10;-2.00;99.90
59146;DHT22;44928;53.074;6.646;2023-03-01T04:43:37;-2.00;99.90
59146;DHT22;44928;53.074;6.646;2023-03-01T04:46:13;-2.10;99.90
59146;DHT22;44928;53.074;6.646;2023-03-01T04:48:40;-2.10;99.90
59146;DHT22;44928;53.074;6.646;2023-03-01T04:51:07;-2.00;99.90
59146;DHT22;44928;53.074;6.646;2023-03-01T04:53:34;-2.10;99.90
59146;DHT22;44928;53.074;6.646;2023-03-01T04:56:02;-2.10;99.90
59146;DHT22;44928;53.074;6.646;2023-03-01T04:58:28;-2.10;99.90
59146;DHT22;44928;53.074;6.646;2023-03-01T05:00:54;-2.10;99.90
59146;DHT22;44928;53.074;6.646;2023-03-01T05:03:21;-2.10;99.90
59146;DHT22;44928;53.074;6.646;2023-03-01T05:05:48;-2.10;99.90
59146;DHT22;44928;53.074;6.646;2023-03-01T05:08:15;-2.10;99.90
59146;DHT22;44928;53.074;6.646;2023-03-01T05:10:51;-2.20;99.90
59146;DHT22;44928;53.074;6.646;2023-03-01T05:13:19;-2.30;99.90
59146;DHT22;44928;53.074;6.646;2023-03-01T05:15:56;-2.30;99.90
59146;DHT22;44928;53.074;6.646;2023-03-01T05:18:23;-2.30;99.90
59146;DHT22;44928;53.074;6.646;2023-03-01T05:20:55;-2.30;99.90
59146;DHT22;44928;53.074;6.646;2023-03-01T05:23:24;-2.40;99.90
59146;DHT22;44928;53.074;6.646;2023-03-01T05:25:51;-2.50;99.90
59146;DHT22;44928;53.074;6.646;2023-03-01T05:28:19;-2.50;99.90
59146;DHT22;44928;53.074;6.646;2023-03-01T05:30:46;-2.40;99.90
59146;DHT22;44928;53.074;6.646;2023-03-01T05:33:12;-2.40;99.90
59146;DHT22;44928;53.074;6.646;2023-03-01T05:35:41;-2.50;99.90
59146;DHT22;44928;53.074;6.646;2023-03-01T05:38:09;-2.50;99.90
59146;DHT22;44928;53.074;6.646;2023-03-01T05:40:39;-2.50;99.90
59146;DHT22;44928;53.074;6.646;2023-03-01T05:43:06;-2.50;99.90
59146;DHT22;44928;53.074;6.646;2023-03-01T05:45:32;-2.50;99.90
59146;DHT22;44928;53.074;6.646;2023-03-01T05:47:58;-2.60;99.90
59146;DHT22;44928;53.074;6.646;2023-03-01T05:50:27;-2.60;99.90
59146;DHT22;44928;53.074;6.646;2023-03-01T05:53:17;-2.60;99.90
59146;DHT22;44928;53.074;6.646;2023-03-01T05:55:44;-2.60;99.90
59146;DHT22;44928;53.074;6.646;2023-03-01T05:58:16;-2.60;99.90
59146;DHT22;44928;53.074;6.646;2023-03-01T06:00:44;-2.50;99.90
59146;DHT22;44928;53.074;6.646;2023-03-01T06:03:11;-2.50;99.90
59146;DHT22;44928;53.074;6.646;2023-03-01T06:05:38;-2.50;99.90
59146;DHT22;44928;53.074;6.646;2023-03-01T06:08:05;-2.50;99.90
59146;DHT22;44928;53.074;6.646;2023-03-01T06:10:30;-2.60;99.90
59146;DHT22;44928;53.074;6.646;2023-03-01T06:12:57;-2.60;99.90
59146;DHT22;44928;53.074;6.646;2023-03-01T06:15:24;-2.60;99.90
59146;DHT22;44928;53.074;6.646;2023-03-01T06:17:50;-2.60;99.90
59146;DHT22;44928;53.074;6.646;2023-03-01T06:20:21;-2.60;99.90
59146;DHT22;44928;53.074;6.646;2023-03-01T06:22:48;-2.50;99.90
59146;DHT22;44928;53.074;6.646;2023-03-01T06:25:19;-2.50;99.90
59146;DHT22;44928;53.074;6.646;2023-03-01T06:27:46;-2.50;99.90
59146;DHT22;44928;53.074;6.646;2023-03-01T06:30:13;-2.50;99.90
59146;DHT22;44928;53.074;6.646;2023-03-01T06:32:40;-2.40;99.90
59146;DHT22;44928;53.074;6.646;2023-03-01T06:35:08;-2.40;99.90
59146;DHT22;44928;53.074;6.646;2023-03-01T06:37:35;-2.40;99.90
59146;DHT22;44928;53.074;6.646;2023-03-01T06:40:02;-2.40;99.90
59146;DHT22;44928;53.074;6.646;2023-03-01T06:42:36;-2.40;99.90
59146;DHT22;44928;53.074;6.646;2023-03-01T06:45:03;-2.40;99.90
59146;DHT22;44928;53.074;6.646;2023-03-01T06:47:30;-2.40;99.90
59146;DHT22;44928;53.074;6.646;2023-03-01T06:49:55;-2.40;99.90
59146;DHT22;44928;53.074;6.646;2023-03-01T06:52:21;-2.40;99.90
59146;DHT22;44928;53.074;6.646;2023-03-01T06:54:47;-2.40;99.90
59146;DHT22;44928;53.074;6.646;2023-03-01T06:57:13;-2.40;99.90
59146;DHT22;44928;53.074;6.646;2023-03-01T06:59:38;-2.40;99.90
59146;DHT22;44928;53.074;6.646;2023-03-01T07:02:04;-2.40;99.90
59146;DHT22;44928;53.074;6.646;2023-03-01T07:04:30;-2.40;99.90
59146;DHT22;44928;53.074;6.646;2023-03-01T07:06:56;-2.40;99.90
59146;DHT22;44928;53.074;6.646;2023-03-01T07:09:25;-2.40;99.90
59146;DHT22;44928;53.074;6.646;2023-03-01T07:11:50;-2.40;99.90
59146;DHT22;44928;53.074;6.646;2023-03-01T07:14:16;-2.40;99.90
59146;DHT22;44928;53.074;6.646;2023-03-01T07:16:42;-2.30;99.90
59146;DHT22;44928;53.074;6.646;2023-03-01T07:19:08;-2.30;99.90
59146;DHT22;44928;53.074;6.646;2023-03-01T07:21:34;-2.30;99.90
59146;DHT22;44928;53.074;6.646;2023-03-01T07:23:59;-2.20;99.90
59146;DHT22;44928;53.074;6.646;2023-03-01T07:26:25;-2.20;99.90
59146;DHT22;44928;53.074;6.646;2023-03-01T07:28:51;-2.20;99.90
59146;DHT22;44928;53.074;6.646;2023-03-01T07:31:17;-2.10;99.90
59146;DHT22;44928;53.074;6.646;2023-03-01T07:33:42;-2.10;99.90
59146;DHT22;44928;53.074;6.646;2023-03-01T07:36:09;-2.00;99.90
59146;DHT22;44928;53.074;6.646;2023-03-01T07:38:34;-2.00;99.90
59146;DHT22;44928;53.074;6.646;2023-03-01T07:41:02;-1.90;99.90
59146;DHT22;44928;53.074;6.646;2023-03-01T07:43:29;-1.90;99.90
59146;DHT22;44928;53.074;6.646;2023-03-01T07:45:59;-1.80;99.90
59146;DHT22;44928;53.074;6.646;2023-03-01T07:48:25;-1.80;99.90
59146;DHT22;44928;53.074;6.646;2023-03-01T07:50:51;-1.70;99.90
59146;DHT22;44928;53.074;6.646;2023-03-01T07:53:17;-1.70;99.90
59146;DHT22;44928;53.074;6.646;2023-03-01T07:55:43;-1.60;99.90
59146;DHT22;44928;53.074;6.646;2023-03-01T07:58:08;-1.60;99.90
59146;DHT22;44928;53.074;6.646;2023-03-01T08:00:34;-1.50;99.90
59146;DHT22;44928;53.074;6.646;2023-03-01T08:03:00;-1.40;99.90
59146;DHT22;44928;53.074;6.646;2023-03-01T08:05:28;-1.30;99.90
59146;DHT22;44928;53.074;6.646;2023-03-01T08:07:54;-1.20;99.90
59146;DHT22;44928;53.074;6.646;2023-03-01T08:10:20;-1.20;99.90
59146;DHT22;44928;53.074;6.646;2023-03-01T08:12:45;-1.00;99.90
59146;DHT22;44928;53.074;6.646;2023-03-01T08:15:11;-1.00;99.90
59146;DHT22;44928;53.074;6.646;2023-03-01T08:17:37;-0.90;99.90
59146;DHT22;44928;53.074;6.646;2023-03-01T08:20:03;-0.80;99.90
59146;DHT22;44928;53.074;6.646;2023-03-01T08:22:33;-0.80;99.90
59146;DHT22;44928;53.074;6.646;2023-03-01T08:24:58;-0.70;99.90
59146;DHT22;44928;53.074;6.646;2023-03-01T08:27:24;-0.60;99.90
59146;DHT22;44928;53.074;6.646;2023-03-01T08:29:50;-0.50;99.90
59146;DHT22;44928;53.074;6.646;2023-03-01T08:32:16;-0.50;99.90
59146;DHT22;44928;53.074;6.646;2023-03-01T08:34:41;-0.40;99.90
59146;DHT22;44928;53.074;6.646;2023-03-01T08:37:07;-0.30;99.90
59146;DHT22;44928;53.074;6.646;2023-03-01T08:39:33;-0.30;99.90
59146;DHT22;44928;53.074;6.646;2023-03-01T08:41:59;-0.20;99.90
59146;DHT22;44928;53.074;6.646;2023-03-01T08:44:24;-0.10;99.90
59146;DHT22;44928;53.074;6.646;2023-03-01T08:46:50;0.00;99.90
59146;DHT22;44928;53.074;6.646;2023-03-01T08:49:19;0.00;99.90
59146;DHT22;44928;53.074;6.646;2023-03-01T08:51:46;0.20;99.90
59146;DHT22;44928;53.074;6.646;2023-03-01T08:54:14;0.30;99.90
59146;DHT22;44928;53.074;6.646;2023-03-01T08:56:40;0.40;99.90
59146;DHT22;44928;53.074;6.646;2023-03-01T08:59:07;0.50;99.90
59146;DHT22;44928;53.074;6.646;2023-03-01T09:01:33;0.60;99.90
59146;DHT22;44928;53.074;6.646;2023-03-01T09:03:59;0.70;99.90
59146;DHT22;44928;53.074;6.646;2023-03-01T09:06:25;0.80;99.90
59146;DHT22;44928;53.074;6.646;2023-03-01T09:08:51;0.90;99.90
59146;DHT22;44928;53.074;6.646;2023-03-01T09:11:19;1.00;99.90
59146;DHT22;44928;53.074;6.646;2023-03-01T09:13:47;1.20;99.90
59146;DHT22;44928;53.074;6.646;2023-03-01T09:16:15;1.30;99.90
59146;DHT22;44928;53.074;6.646;2023-03-01T09:18:42;1.30;99.90
59146;DHT22;44928;53.074;6.646;2023-03-01T09:21:10;1.50;99.90
59146;DHT22;44928;53.074;6.646;2023-03-01T09:23:39;1.60;99.90
59146;DHT22;44928;53.074;6.646;2023-03-01T09:26:09;1.70;99.90
59146;DHT22;44928;53.074;6.646;2023-03-01T09:28:38;1.80;99.90
59146;DHT22;44928;53.074;6.646;2023-03-01T09:31:04;1.90;99.90
59146;DHT22;44928;53.074;6.646;2023-03-01T09:33:32;2.00;99.90
59146;DHT22;44928;53.074;6.646;2023-03-01T09:36:04;2.10;99.90
59146;DHT22;44928;53.074;6.646;2023-03-01T09:38:30;2.20;99.90
59146;DHT22;44928;53.074;6.646;2023-03-01T09:40:56;2.20;99.90
59146;DHT22;44928;53.074;6.646;2023-03-01T09:43:46;2.30;99.90
59146;DHT22;44928;53.074;6.646;2023-03-01T09:46:14;2.30;99.90
59146;DHT22;44928;53.074;6.646;2023-03-01T09:48:57;2.40;99.90
59146;DHT22;44928;53.074;6.646;2023-03-01T09:51:27;2.40;99.90
59146;DHT22;44928;53.074;6.646;2023-03-01T09:53:55;2.50;99.90
59146;DHT22;44928;53.074;6.646;2023-03-01T09:59:02;2.60;99.90
59146;DHT22;44928;53.074;6.646;2023-03-01T10:01:56;2.60;99.90
59146;DHT22;44928;53.074;6.646;2023-03-01T10:09:54;2.90;99.90
59146;DHT22;44928;53.074;6.646;2023-03-01T10:12:24;3.00;99.90
59146;DHT22;44928;53.074;6.646;2023-03-01T10:14:53;3.00;99.90
59146;DHT22;44928;53.074;6.646;2023-03-01T10:17:42;3.20;99.90
59146;DHT22;44928;53.074;6.646;2023-03-01T10:22:41;3.30;99.90
59146;DHT22;44928;53.074;6.646;2023-03-01T10:25:12;3.30;99.90
59146;DHT22;44928;53.074;6.646;2023-03-01T10:27:54;3.40;99.90
59146;DHT22;44928;53.074;6.646;2023-03-01T10:30:40;3.50;99.90
59146;DHT22;44928;53.074;6.646;2023-03-01T10:33:40;3.70;99.90
59146;DHT22;44928;53.074;6.646;2023-03-01T10:36:06;3.80;99.90
59146;DHT22;44928;53.074;6.646;2023-03-01T10:38:54;3.90;99.90
59146;DHT22;44928;53.074;6.646;2023-03-01T10:41:23;4.00;99.90
59146;DHT22;44928;53.074;6.646;2023-03-01T10:43:52;4.10;99.90
59146;DHT22;44928;53.074;6.646;2023-03-01T10:49:16;4.30;99.90
59146;DHT22;44928;53.074;6.646;2023-03-01T10:51:46;4.50;99.90
59146;DHT22;44928;53.074;6.646;2023-03-01T10:54:32;4.60;99.90
59146;DHT22;44928;53.074;6.646;2023-03-01T10:57:03;4.80;99.90
59146;DHT22;44928;53.074;6.646;2023-03-01T10:59:31;4.90;99.90
59146;DHT22;44928;53.074;6.646;2023-03-01T11:02:48;5.10;99.90
59146;DHT22;44928;53.074;6.646;2023-03-01T11:07:52;5.50;99.90
59146;DHT22;44928;53.074;6.646;2023-03-01T11:10:30;5.60;99.90
59146;DHT22;44928;53.074;6.646;2023-03-01T11:15:33;5.80;99.90
59146;DHT22;44928;53.074;6.646;2023-03-01T11:17:59;5.90;99.90
59146;DHT22;44928;53.074;6.646;2023-03-01T11:20:31;6.00;99.90
59146;DHT22;44928;53.074;6.646;2023-03-01T11:23:17;6.10;99.90
59146;DHT22;44928;53.074;6.646;2023-03-01T11:25:59;6.30;99.90
59146;DHT22;44928;53.074;6.646;2023-03-01T11:28:28;6.40;99.90
59146;DHT22;44928;53.074;6.646;2023-03-01T11:31:00;6.40;99.90
59146;DHT22;44928;53.074;6.646;2023-03-01T11:33:51;6.50;99.90
59146;DHT22;44928;53.074;6.646;2023-03-01T11:36:24;6.50;99.90
59146;DHT22;44928;53.074;6.646;2023-03-01T11:38:53;6.50;99.90
59146;DHT22;44928;53.074;6.646;2023-03-01T11:41:25;6.50;99.90
59146;DHT22;44928;53.074;6.646;2023-03-01T11:44:07;6.50;99.90
59146;DHT22;44928;53.074;6.646;2023-03-01T11:46:39;6.50;99.90
59146;DHT22;44928;53.074;6.646;2023-03-01T11:57:40;6.60;99.90
59146;DHT22;44928;53.074;6.646;2023-03-01T12:00:22;6.60;99.90
59146;DHT22;44928;53.074;6.646;2023-03-01T12:03:15;6.60;99.90
59146;DHT22;44928;53.074;6.646;2023-03-01T12:08:41;6.80;99.90
59146;DHT22;44928;53.074;6.646;2023-03-01T12:19:20;7.10;99.90
59146;DHT22;44928;53.074;6.646;2023-03-01T12:24:49;7.20;99.90
59146;DHT22;44928;53.074;6.646;2023-03-01T12:35:36;7.50;99.90
59146;DHT22;44928;53.074;6.646;2023-03-01T12:52:56;8.10;99.90
59146;DHT22;44928;53.074;6.646;2023-03-01T13:01:21;8.50;99.90
59146;DHT22;44928;53.074;6.646;2023-03-01T13:04:12;8.60;99.90
59146;DHT22;44928;53.074;6.646;2023-03-01T13:09:40;9.00;99.90
59146;DHT22;44928;53.074;6.646;2023-03-01T13:15:34;9.30;99.90
59146;DHT22;44928;53.074;6.646;2023-03-01T13:23:09;9.80;99.90
59146;DHT22;44928;53.074;6.646;2023-03-01T13:30:58;10.30;99.90
59146;DHT22;44928;53.074;6.646;2023-03-01T13:35:54;10.70;99.90
59146;DHT22;44928;53.074;6.646;2023-03-01T13:38:44;10.90;99.90
59146;DHT22;44928;53.074;6.646;2023-03-01T13:41:11;11.10;99.90
59146;DHT22;44928;53.074;6.646;2023-03-01T13:43:44;11.20;99.90
59146;DHT22;44928;53.074;6.646;2023-03-01T13:46:23;11.10;99.90
59146;DHT22;44928;53.074;6.646;2023-03-01T13:48:58;11.00;99.90
59146;DHT22;44928;53.074;6.646;2023-03-01T13:51:26;10.90;99.90
59146;DHT22;44928;53.074;6.646;2023-03-01T13:53:55;10.90;99.90
59146;DHT22;44928;53.074;6.646;2023-03-01T13:56:26;10.70;99.90
59146;DHT22;44928;53.074;6.646;2023-03-01T13:58:54;10.60;99.90
59146;DHT22;44928;53.074;6.646;2023-03-01T14:01:26;10.50;99.90
59146;DHT22;44928;53.074;6.646;2023-03-01T14:03:53;10.50;99.90
59146;DHT22;44928;53.074;6.646;2023-03-01T14:06:25;10.50;99.90
59146;DHT22;44928;53.074;6.646;2023-03-01T14:09:02;10.60;99.90
59146;DHT22;44928;53.074;6.646;2023-03-01T14:19:37;10.80;99.90
59146;DHT22;44928;53.074;6.646;2023-03-01T14:25:05;10.90;99.90
59146;DHT22;44928;53.074;6.646;2023-03-01T14:27:39;10.90;99.40
59146;DHT22;44928;53.074;6.646;2023-03-01T14:30:22;11.00;99.60
59146;DHT22;44928;53.074;6.646;2023-03-01T14:33:03;11.10;99.90
59146;DHT22;44928;53.074;6.646;2023-03-01T14:35:34;11.20;99.60
59146;DHT22;44928;53.074;6.646;2023-03-01T14:38:01;11.50;99.60
59146;DHT22;44928;53.074;6.646;2023-03-01T14:40:32;11.50;98.00
59146;DHT22;44928;53.074;6.646;2023-03-01T14:43:03;11.50;98.10
59146;DHT22;44928;53.074;6.646;2023-03-01T14:45:33;11.70;97.80
59146;DHT22;44928;53.074;6.646;2023-03-01T14:48:02;11.90;96.80
59146;DHT22;44928;53.074;6.646;2023-03-01T14:50:32;11.90;95.10
59146;DHT22;44928;53.074;6.646;2023-03-01T14:53:04;12.00;96.20
59146;DHT22;44928;53.074;6.646;2023-03-01T14:55:38;12.10;95.10
59146;DHT22;44928;53.074;6.646;2023-03-01T14:58:11;12.10;93.70
59146;DHT22;44928;53.074;6.646;2023-03-01T15:00:37;12.30;94.30
59146;DHT22;44928;53.074;6.646;2023-03-01T15:03:11;12.40;94.40
59146;DHT22;44928;53.074;6.646;2023-03-01T15:05:40;12.50;94.10
59146;DHT22;44928;53.074;6.646;2023-03-01T15:08:06;12.60;94.90
59146;DHT22;44928;53.074;6.646;2023-03-01T15:10:35;12.60;94.40
59146;DHT22;44928;53.074;6.646;2023-03-01T15:13:22;12.60;93.60
59146;DHT22;44928;53.074;6.646;2023-03-01T15:15:49;12.50;94.70
59146;DHT22;44928;53.074;6.646;2023-03-01T15:18:22;12.50;95.40
59146;DHT22;44928;53.074;6.646;2023-03-01T15:20:51;12.40;95.30
59146;DHT22;44928;53.074;6.646;2023-03-01T15:23:26;12.30;96.30
59146;DHT22;44928;53.074;6.646;2023-03-01T15:25:53;12.10;96.80
59146;DHT22;44928;53.074;6.646;2023-03-01T15:28:42;11.90;97.70
59146;DHT22;44928;53.074;6.646;2023-03-01T15:31:23;11.60;97.40
59146;DHT22;44928;53.074;6.646;2023-03-01T15:33:50;11.40;98.50
59146;DHT22;44928;53.074;6.646;2023-03-01T15:39:01;11.40;98.80
59146;DHT22;44928;53.074;6.646;2023-03-01T15:41:32;11.40;99.80
59146;DHT22;44928;53.074;6.646;2023-03-01T15:44:00;11.50;99.10
59146;DHT22;44928;53.074;6.646;2023-03-01T15:46:29;11.50;99.20
59146;DHT22;44928;53.074;6.646;2023-03-01T15:48:59;11.70;98.00
59146;DHT22;44928;53.074;6.646;2023-03-01T15:51:34;11.70;98.00
59146;DHT22;44928;53.074;6.646;2023-03-01T15:54:17;11.60;98.00
59146;DHT22;44928;53.074;6.646;2023-03-01T15:56:44;11.70;98.20
59146;DHT22;44928;53.074;6.646;2023-03-01T15:59:11;11.70;98.30
59146;DHT22;44928;53.074;6.646;2023-03-01T16:01:39;11.70;98.00
59146;DHT22;44928;53.074;6.646;2023-03-01T16:04:04;11.80;97.90
59146;DHT22;44928;53.074;6.646;2023-03-01T16:06:30;11.70;97.70
59146;DHT22;44928;53.074;6.646;2023-03-01T16:08:56;11.80;97.90
59146;DHT22;44928;53.074;6.646;2023-03-01T16:11:22;11.80;97.70
59146;DHT22;44928;53.074;6.646;2023-03-01T16:13:48;11.80;97.90
59146;DHT22;44928;53.074;6.646;2023-03-01T16:16:15;11.70;98.50
59146;DHT22;44928;53.074;6.646;2023-03-01T16:18:46;11.70;99.00
59146;DHT22;44928;53.074;6.646;2023-03-01T16:21:20;11.60;99.00
59146;DHT22;44928;53.074;6.646;2023-03-01T16:23:47;11.40;99.80
59146;DHT22;44928;53.074;6.646;2023-03-01T16:26:13;11.10;99.90
59146;DHT22;44928;53.074;6.646;2023-03-01T16:28:40;10.90;99.90
59146;DHT22;44928;53.074;6.646;2023-03-01T16:31:06;10.60;99.90
59146;DHT22;44928;53.074;6.646;2023-03-01T16:33:32;10.40;99.90
59146;DHT22;44928;53.074;6.646;2023-03-01T16:36:10;10.20;99.90
59146;DHT22;44928;53.074;6.646;2023-03-01T16:38:36;9.90;99.90
59146;DHT22;44928;53.074;6.646;2023-03-01T16:41:02;9.70;99.90
59146;DHT22;44928;53.074;6.646;2023-03-01T16:43:28;9.50;99.90
59146;DHT22;44928;53.074;6.646;2023-03-01T16:45:54;9.40;99.90
59146;DHT22;44928;53.074;6.646;2023-03-01T16:48:20;9.20;99.90
59146;DHT22;44928;53.074;6.646;2023-03-01T16:50:55;9.10;99.90
59146;DHT22;44928;53.074;6.646;2023-03-01T16:53:21;8.90;99.90
59146;DHT22;44928;53.074;6.646;2023-03-01T16:55:53;8.70;99.90
59146;DHT22;44928;53.074;6.646;2023-03-01T16:58:19;8.60;99.90
59146;DHT22;44928;53.074;6.646;2023-03-01T17:00:45;8.50;99.90
59146;DHT22;44928;53.074;6.646;2023-03-01T17:03:10;8.30;99.90
59146;DHT22;44928;53.074;6.646;2023-03-01T17:05:40;8.20;99.90
59146;DHT22;44928;53.074;6.646;2023-03-01T17:08:06;8.00;99.90
59146;DHT22;44928;53.074;6.646;2023-03-01T17:10:33;8.00;99.90
59146;DHT22;44928;53.074;6.646;2023-03-01T17:12:59;7.80;99.90
59146;DHT22;44928;53.074;6.646;2023-03-01T17:15:24;7.70;99.90
59146;DHT22;44928;53.074;6.646;2023-03-01T17:17:50;7.60;99.90
59146;DHT22;44928;53.074;6.646;2023-03-01T17:20:16;7.50;99.90
59146;DHT22;44928;53.074;6.646;2023-03-01T17:22:42;7.40;99.90
59146;DHT22;44928;53.074;6.646;2023-03-01T17:25:09;7.20;99.90
59146;DHT22;44928;53.074;6.646;2023-03-01T17:27:37;7.20;99.90
59146;DHT22;44928;53.074;6.646;2023-03-01T17:30:04;7.10;99.90
59146;DHT22;44928;53.074;6.646;2023-03-01T17:32:30;7.00;99.90
59146;DHT22;44928;53.074;6.646;2023-03-01T17:34:56;6.90;99.90
59146;DHT22;44928;53.074;6.646;2023-03-01T17:37:22;6.80;99.90
59146;DHT22;44928;53.074;6.646;2023-03-01T17:39:47;6.70;99.90
59146;DHT22;44928;53.074;6.646;2023-03-01T17:42:13;6.60;99.90